Cedar Rapids, Iowa
Current Conditions -  °F | °C
As of 7:52 AM on Thursday 29 Jan 2015 (Local Time) from KCID Reporting Station
Overcast Overcast  
Wind Chill: -5°   Ceiling: 1300
Heat Index:   Visibility: 8mi
Dew Point:   Wind: 21mph
Humidity: 92%   Direction: 320°NW
Pressure: 30"   Gusts: 30mph
Location:  41.98°N, 91.67°W
Report Text: KCID 291352Z 32018G26KT 8SM OVC013 01/00 A3000 RMK AO2 PK WND 32026/1352 SLP166 T00110000
Loading
Personal Weather Stations






























Interactive Weather Map New forecast layout! Learn more

10-Day Weather Forecast

Advertisements
Track Severe Weather on mobile